Time;durP1;ratioP1;P1;durP2;ratioP2;P2;SDS_P1;SDS_P2;PMS_P1;PMS_P2;Temp;Humidity;BMP_temperature;BMP_pressure;BME280_temperature;BME280_humidity;BME280_pressure;Samples;Min_cycle;Max_cycle;Signal;HPM_P1;HPM_P2
2023/06/05 00:00:33;;;;;;;0.50;0.40;;;;;;;15.95;100.00;95855.72;5100576;28;20445;-59
2023/06/05 00:03:02;;;;;;;0.50;0.40;;;;;;;15.99;100.00;95854.06;5111129;28;20436;-59
2023/06/05 00:05:31;;;;;;;0.43;0.33;;;;;;;16.20;100.00;95855.31;5112432;28;20523;-59
2023/06/05 00:08:00;;;;;;;0.40;0.30;;;;;;;16.22;100.00;95850.47;5104904;28;20994;-60
2023/06/05 00:10:28;;;;;;;0.60;0.53;;;;;;;16.23;100.00;95846.72;5105932;28;20472;-59
2023/06/05 00:12:57;;;;;;;0.40;0.30;;;;;;;16.20;100.00;95848.09;5112355;28;20444;-59
2023/06/05 00:15:25;;;;;;;0.40;0.30;;;;;;;16.24;100.00;95849.09;5111909;28;20440;-60
2023/06/05 00:17:55;;;;;;;0.40;0.30;;;;;;;16.29;100.00;95845.56;5085620;28;20440;-59
2023/06/05 00:20:23;;;;;;;1.00;0.47;;;;;;;16.12;100.00;95845.28;5112342;28;20435;-59
2023/06/05 00:22:54;;;;;;;0.40;0.40;;;;;;;15.80;100.00;95848.69;5112289;28;20478;-59
2023/06/05 00:25:23;;;;;;;0.53;0.50;;;;;;;15.39;100.00;95847.59;5111502;28;20496;-59
2023/06/05 00:27:51;;;;;;;0.50;0.30;;;;;;;14.96;100.00;95844.91;5111747;28;20527;-60
2023/06/05 00:30:19;;;;;;;0.50;0.37;;;;;;;15.32;100.00;95826.59;5111698;28;20487;-60
2023/06/05 00:32:48;;;;;;;0.40;0.27;;;;;;;15.57;100.00;95836.19;5111927;28;20443;-60
2023/06/05 00:35:16;;;;;;;1.13;1.03;;;;;;;15.41;100.00;95840.09;5097708;28;20439;-60
2023/06/05 00:37:47;;;;;;;0.73;0.70;;;;;;;15.05;100.00;95843.19;5111948;28;20827;-60
2023/06/05 00:40:17;;;;;;;1.10;0.80;;;;;;;15.21;100.00;95833.94;5111616;28;20432;-60
2023/06/05 00:42:45;;;;;;;0.50;0.50;;;;;;;15.18;100.00;95842.50;5112268;28;20436;-59
2023/06/05 00:45:14;;;;;;;0.40;0.20;;;;;;;15.36;100.00;95853.50;5111953;28;20493;-60
2023/06/05 00:47:42;;;;;;;0.50;0.47;;;;;;;15.55;100.00;95838.34;5111852;28;20887;-59
2023/06/05 00:50:12;;;;;;;0.40;0.27;;;;;;;15.65;100.00;95835.56;5113648;28;20476;-60
2023/06/05 00:52:42;;;;;;;0.40;0.40;;;;;;;15.65;100.00;95839.03;5114641;28;20444;-59
2023/06/05 00:55:12;;;;;;;1.57;0.40;;;;;;;15.69;100.00;95842.69;5115644;28;20446;-60
2023/06/05 00:57:44;;;;;;;0.50;0.40;;;;;;;15.19;100.00;95841.44;5114183;28;20990;-59
2023/06/05 01:00:13;;;;;;;0.40;0.30;;;;;;;15.30;100.00;95836.78;5115548;28;20526;-60
2023/06/05 01:02:42;;;;;;;0.60;0.60;;;;;;;15.44;100.00;95839.53;5114929;28;20431;-59
2023/06/05 01:05:11;;;;;;;0.50;0.30;;;;;;;15.48;100.00;95828.03;5115817;28;20442;-57
2023/06/05 01:07:39;;;;;;;0.40;0.30;;;;;;;15.44;100.00;95834.19;5114635;28;20485;-58
2023/06/05 01:10:09;;;;;;;0.40;0.20;;;;;;;15.15;100.00;95823.59;5115262;28;20889;-59
2023/06/05 01:12:43;;;;;;;0.40;0.40;;;;;;;15.03;100.00;95836.53;5115625;28;20446;-58
2023/06/05 01:15:12;;;;;;;0.40;0.30;;;;;;;15.06;100.00;95847.47;5115115;28;20436;-58
2023/06/05 01:17:42;;;;;;;0.50;0.30;;;;;;;14.77;100.00;95838.72;5115117;28;20436;-59
2023/06/05 01:20:12;;;;;;;0.40;0.40;;;;;;;15.01;100.00;95844.84;5102824;28;20440;-59
2023/06/05 01:22:40;;;;;;;0.50;0.30;;;;;;;15.08;100.00;95841.81;5114760;28;20593;-58
2023/06/05 01:25:11;;;;;;;2.27;0.80;;;;;;;15.21;100.00;95841.94;5114973;28;20949;-58
2023/06/05 01:27:58;;;;;;;0.50;0.30;;;;;;;15.30;100.00;95846.66;5089571;28;20901;-58
2023/06/05 01:30:30;;;;;;;1.20;0.80;;;;;;;15.29;100.00;95837.84;5114815;28;20500;-59
2023/06/05 01:33:04;;;;;;;0.50;0.30;;;;;;;14.74;100.00;95732.53;5114686;28;20966;-59
2023/06/05 01:35:35;;;;;;;0.40;0.30;;;;;;;15.43;100.00;95832.63;5113948;28;20435;-58
2023/06/05 01:38:05;;;;;;;0.40;0.30;;;;;;;15.37;100.00;95823.06;5114860;28;20573;-59
2023/06/05 01:40:36;;;;;;;0.43;0.43;;;;;;;14.45;100.00;95691.78;5087491;28;20440;-59
2023/06/05 01:43:08;;;;;;;0.60;0.60;;;;;;;15.39;100.00;95836.91;5114660;28;20919;-58
2023/06/05 01:45:40;;;;;;;0.40;0.27;;;;;;;15.45;100.00;95838.47;5114767;28;20443;-59
2023/06/05 01:48:10;;;;;;;0.40;0.20;;;;;;;15.08;100.00;95842.63;5114526;28;20436;-59
2023/06/05 01:50:42;;;;;;;0.80;0.40;;;;;;;15.31;100.00;95840.22;5114472;28;20480;-59
2023/06/05 01:53:11;;;;;;;1.27;0.30;;;;;;;15.19;100.00;95838.78;5114003;28;20482;-59
2023/06/05 01:55:41;;;;;;;0.40;0.30;;;;;;;14.90;100.00;95830.00;5114326;28;20439;-58
2023/06/05 01:58:10;;;;;;;0.40;0.30;;;;;;;14.92;100.00;95840.41;5114550;28;20440;-58
2023/06/05 02:00:38;;;;;;;0.40;0.40;;;;;;;15.08;100.00;95820.47;5114718;28;20567;-58
2023/06/05 02:03:07;;;;;;;0.60;0.43;;;;;;;15.30;100.00;95834.09;5114421;27;20471;-59
2023/06/05 02:05:36;;;;;;;0.50;0.40;;;;;;;15.25;100.00;95832.28;5114834;28;20435;-59
2023/06/05 02:08:05;;;;;;;0.40;0.30;;;;;;;15.20;100.00;95832.34;5087403;28;20478;-60
2023/06/05 02:10:34;;;;;;;0.40;0.30;;;;;;;15.12;100.00;95842.88;5114077;28;20468;-59
2023/06/05 02:13:03;;;;;;;0.40;0.30;;;;;;;15.21;100.00;95839.28;5113860;28;20959;-58
2023/06/05 02:15:34;;;;;;;0.40;0.30;;;;;;;15.22;100.00;95822.19;5113066;28;20960;-59
2023/06/05 02:18:04;;;;;;;0.43;0.27;;;;;;;15.05;100.00;95832.50;5114470;28;20436;-59
2023/06/05 02:20:34;;;;;;;0.40;0.30;;;;;;;14.99;100.00;95827.53;5113316;28;20474;-59
2023/06/05 02:23:04;;;;;;;0.50;0.30;;;;;;;14.74;100.00;95820.59;5114150;28;20447;-58
2023/06/05 02:25:33;;;;;;;0.57;0.30;;;;;;;14.86;100.00;95825.53;5113895;28;20940;-58
2023/06/05 02:28:03;;;;;;;0.40;0.30;;;;;;;15.06;100.00;95823.44;5113591;28;20793;-58
2023/06/05 02:30:32;;;;;;;0.40;0.30;;;;;;;14.66;100.00;95821.19;5113874;28;20464;-58
2023/06/05 02:33:02;;;;;;;0.50;0.50;;;;;;;14.93;100.00;95818.78;5113776;28;21115;-59
2023/06/05 02:35:31;;;;;;;0.40;0.40;;;;;;;14.66;100.00;95818.53;5113604;28;20523;-58
2023/06/05 02:37:59;;;;;;;0.40;0.30;;;;;;;14.75;100.00;95818.72;5113704;28;20523;-59
2023/06/05 02:40:27;;;;;;;0.50;0.50;;;;;;;14.57;100.00;95807.66;5113284;28;20492;-58
2023/06/05 02:42:56;;;;;;;1.07;0.97;;;;;;;14.78;100.00;95810.94;5114024;28;20474;-59
2023/06/05 02:45:26;;;;;;;1.60;0.30;;;;;;;14.86;100.00;95807.66;5113592;28;20432;-58
2023/06/05 02:47:54;;;;;;;0.50;0.40;;;;;;;15.01;100.00;95815.47;5113527;28;20828;-58
2023/06/05 02:50:22;;;;;;;0.40;0.40;;;;;;;15.03;100.00;95807.19;5087263;28;20551;-59
2023/06/05 02:52:51;;;;;;;0.43;0.40;;;;;;;15.07;100.00;95808.22;5113337;28;20919;-58
2023/06/05 02:55:19;;;;;;;0.40;0.30;;;;;;;15.04;100.00;95809.59;5113187;28;20442;-59
2023/06/05 02:57:48;;;;;;;0.90;0.60;;;;;;;15.07;100.00;95814.34;5113381;28;20443;-59
2023/06/05 03:00:18;;;;;;;0.40;0.30;;;;;;;14.97;100.00;95817.16;5112876;28;20528;-59
2023/06/05 03:03:06;;;;;;;0.63;0.50;;;;;;;15.02;100.00;95809.06;5112311;28;20451;-58
2023/06/05 03:05:35;;;;;;;0.50;0.40;;;;;;;14.90;100.00;95808.66;5113570;28;20440;-59
2023/06/05 03:08:04;;;;;;;0.90;0.53;;;;;;;14.49;100.00;95804.84;5112884;28;20804;-59
2023/06/05 03:10:32;;;;;;;0.40;0.30;;;;;;;14.20;100.00;95820.78;5112787;28;20463;-59
2023/06/05 03:13:00;;;;;;;0.50;0.30;;;;;;;14.50;100.00;95809.06;5112622;28;20451;-59
2023/06/05 03:15:28;;;;;;;1.27;0.37;;;;;;;14.66;100.00;95818.53;5113238;28;20852;-58
2023/06/05 03:17:58;;;;;;;0.50;0.50;;;;;;;14.59;100.00;95818.06;5113014;28;20470;-59
2023/06/05 03:20:27;;;;;;;0.50;0.30;;;;;;;14.55;100.00;95817.84;5112680;28;20436;-59
2023/06/05 03:22:56;;;;;;;0.83;0.83;;;;;;;14.68;100.00;95821.72;5112711;28;20935;-59
2023/06/05 03:25:24;;;;;;;0.40;0.20;;;;;;;14.67;100.00;95814.81;5112544;28;20963;-59
2023/06/05 03:27:53;;;;;;;0.90;0.33;;;;;;;14.46;100.00;95826.72;5112529;28;20463;-58
2023/06/05 03:30:21;;;;;;;0.40;0.30;;;;;;;14.28;100.00;95822.84;5112155;28;20510;-59
2023/06/05 03:32:50;;;;;;;0.40;0.20;;;;;;;14.02;100.00;95816.94;5112749;28;20500;-59
2023/06/05 03:35:19;;;;;;;0.60;0.40;;;;;;;13.99;100.00;95830.00;5112309;28;20866;-59
2023/06/05 03:37:48;;;;;;;0.50;0.30;;;;;;;13.87;100.00;95838.34;5113010;28;20451;-59
2023/06/05 03:40:16;;;;;;;0.60;0.60;;;;;;;13.55;100.00;95840.69;5112558;28;20443;-59
2023/06/05 03:42:45;;;;;;;2.10;0.50;;;;;;;13.35;100.00;95836.28;5112216;28;20432;-59
2023/06/05 03:45:13;;;;;;;0.60;0.40;;;;;;;13.49;100.00;95840.97;5112086;28;20434;-58
2023/06/05 03:47:43;;;;;;;0.50;0.40;;;;;;;13.60;100.00;95843.31;5112683;28;20518;-59
2023/06/05 03:50:13;;;;;;;0.53;0.43;;;;;;;13.51;100.00;95828.22;5112207;28;20935;-59
2023/06/05 03:52:42;;;;;;;0.50;0.50;;;;;;;13.56;100.00;95828.19;5111804;28;20501;-59
2023/06/05 03:55:11;;;;;;;0.40;0.30;;;;;;;14.29;100.00;95842.31;5112009;28;20500;-59
2023/06/05 03:57:40;;;;;;;0.40;0.20;;;;;;;14.27;100.00;95847.91;5112265;28;20945;-59
2023/06/05 04:00:10;;;;;;;0.40;0.27;;;;;;;14.27;100.00;95837.25;5112123;28;20436;-59
2023/06/05 04:02:39;;;;;;;0.50;0.30;;;;;;;14.60;100.00;95833.00;5111975;28;20520;-58
2023/06/05 04:05:11;;;;;;;0.87;0.67;;;;;;;14.61;100.00;95827.38;5111827;28;20514;-59
2023/06/05 04:07:40;;;;;;;1.80;0.40;;;;;;;14.76;100.00;95839.78;5111611;28;20444;-58
2023/06/05 04:10:11;;;;;;;0.57;0.57;;;;;;;14.78;100.00;95834.16;5111625;28;20514;-59
2023/06/05 04:12:39;;;;;;;0.40;0.30;;;;;;;14.60;100.00;95831.13;5111432;28;20536;-60
2023/06/05 04:15:09;;;;;;;1.23;0.53;;;;;;;14.90;100.00;95840.69;5102886;28;21024;-60
2023/06/05 04:17:38;;;;;;;1.10;1.10;;;;;;;14.70;100.00;95792.88;5111570;28;20862;-59
2023/06/05 04:20:13;;;;;;;0.40;0.30;;;;;;;14.84;100.00;95841.84;5112437;28;20523;-59
2023/06/05 04:22:42;;;;;;;1.57;0.50;;;;;;;14.90;100.00;95845.25;5111801;28;20427;-60
2023/06/05 04:25:13;;;;;;;0.50;0.43;;;;;;;15.07;100.00;95846.41;5114897;28;20446;-58
2023/06/05 04:27:43;;;;;;;0.40;0.30;;;;;;;15.03;100.00;95840.00;5115664;28;20435;-58
2023/06/05 04:30:13;;;;;;;0.60;0.40;;;;;;;15.18;100.00;95842.50;5115475;28;20467;-53
2023/06/05 04:32:42;;;;;;;0.73;0.73;;;;;;;15.41;100.00;95842.78;5115775;28;20524;-55
2023/06/05 04:35:10;;;;;;;0.67;0.67;;;;;;;15.73;100.00;95842.94;5115699;28;20524;-54
2023/06/05 04:37:39;;;;;;;0.60;0.40;;;;;;;15.84;100.00;95844.34;5115727;28;20520;-55
2023/06/05 04:40:09;;;;;;;0.43;0.30;;;;;;;15.94;100.00;95828.16;5115825;28;20447;-56
2023/06/05 04:42:40;;;;;;;1.03;0.40;;;;;;;16.06;100.00;95835.75;5115952;28;20458;-55
2023/06/05 04:45:09;;;;;;;0.47;0.47;;;;;;;15.95;100.00;95835.13;5116134;28;20501;-56
2023/06/05 04:47:37;;;;;;;0.40;0.30;;;;;;;15.66;100.00;95765.00;5115939;28;20479;-55
2023/06/05 04:50:08;;;;;;;0.50;0.50;;;;;;;16.23;100.00;95844.06;5115312;28;20443;-55
2023/06/05 04:52:39;;;;;;;0.70;0.50;;;;;;;15.96;100.00;95851.97;5115567;28;20486;-56
2023/06/05 04:55:09;;;;;;;0.80;0.60;;;;;;;15.42;100.00;95844.38;5089618;28;21009;-56
2023/06/05 04:57:38;;;;;;;0.77;0.77;;;;;;;15.20;100.00;95852.94;5115445;28;20444;-56
2023/06/05 05:00:10;;;;;;;0.50;0.43;;;;;;;15.05;100.00;95859.22;5115315;28;20819;-56
2023/06/05 05:02:38;;;;;;;0.87;0.60;;;;;;;15.01;100.00;95863.53;5102208;28;20436;-56
2023/06/05 05:05:08;;;;;;;1.20;1.10;;;;;;;14.86;100.00;95845.00;5115255;28;20467;-56
2023/06/05 05:07:36;;;;;;;0.77;0.70;;;;;;;15.12;100.00;95853.53;5115094;28;20440;-56
2023/06/05 05:10:06;;;;;;;0.70;0.40;;;;;;;15.32;100.00;95852.50;5114965;28;20512;-56
2023/06/05 05:12:34;;;;;;;3.93;1.73;;;;;;;15.63;100.00;95843.88;5100734;28;20471;-56
2023/06/05 05:15:06;;;;;;;2.00;1.00;;;;;;;15.57;100.00;95846.88;5115233;28;20966;-56
2023/06/05 05:17:34;;;;;;;0.83;0.83;;;;;;;15.72;100.00;95857.38;5115469;28;20432;-56
2023/06/05 05:20:04;;;;;;;0.50;0.40;;;;;;;15.97;100.00;95843.63;5115109;28;20479;-56
2023/06/05 05:22:32;;;;;;;2.90;0.67;;;;;;;16.12;100.00;95842.59;5114624;28;20435;-56
2023/06/05 05:25:00;;;;;;;0.53;0.50;;;;;;;15.54;100.00;95853.59;5114787;28;20472;-56
2023/06/05 05:27:28;;;;;;;1.33;1.27;;;;;;;16.07;100.00;95856.84;5115038;28;20809;-56
2023/06/05 05:29:57;;;;;;;0.57;0.57;;;;;;;15.96;100.00;95847.41;5114473;28;21010;-56
2023/06/05 05:32:27;;;;;;;0.53;0.50;;;;;;;16.15;100.00;95845.50;5114538;28;20475;-56
2023/06/05 05:34:55;;;;;;;1.27;0.50;;;;;;;16.73;100.00;95842.44;5114074;28;20439;-56
2023/06/05 05:37:25;;;;;;;1.40;1.27;;;;;;;17.37;100.00;95844.97;5114463;28;20440;-56
2023/06/05 05:39:54;;;;;;;0.50;0.50;;;;;;;17.18;100.00;95836.22;5114502;28;20444;-56
2023/06/05 05:42:22;;;;;;;0.53;0.53;;;;;;;17.22;100.00;95839.91;5114858;28;20440;-57
2023/06/05 05:44:51;;;;;;;1.23;0.60;;;;;;;17.07;100.00;95826.81;5113938;28;20439;-56
2023/06/05 05:47:19;;;;;;;0.80;0.80;;;;;;;16.83;100.00;95839.56;5114249;28;20432;-58
2023/06/05 05:49:49;;;;;;;0.50;0.50;;;;;;;17.28;100.00;95833.34;5114089;28;20488;-58
2023/06/05 05:52:20;;;;;;;0.87;0.43;;;;;;;17.98;100.00;95832.97;5114153;28;20916;-58
2023/06/05 05:54:48;;;;;;;1.53;1.43;;;;;;;17.46;100.00;95837.00;5113964;28;20484;-58
2023/06/05 05:57:17;;;;;;;0.70;0.70;;;;;;;17.38;100.00;95830.47;5114018;28;20840;-58
2023/06/05 05:59:45;;;;;;;0.70;0.70;;;;;;;16.90;100.00;95819.34;5113863;28;20475;-58
2023/06/05 06:02:13;;;;;;;0.60;0.60;;;;;;;16.89;100.00;95833.06;5113859;28;20448;-58
2023/06/05 06:04:43;;;;;;;0.70;0.70;;;;;;;16.74;100.00;95836.81;5113559;28;20470;-58
2023/06/05 06:07:14;;;;;;;0.60;0.53;;;;;;;17.70;100.00;95834.94;5114388;28;20486;-59
2023/06/05 06:09:42;;;;;;;0.57;0.57;;;;;;;18.22;100.00;95838.84;5113904;28;20784;-59
2023/06/05 06:12:10;;;;;;;2.20;0.70;;;;;;;18.00;100.00;95836.94;5113737;28;20468;-59
2023/06/05 06:14:39;;;;;;;9.13;0.63;;;;;;;17.72;100.00;95838.09;5114184;27;20439;-59
2023/06/05 06:17:10;;;;;;;0.93;0.93;;;;;;;17.64;100.00;95839.59;5113621;28;20439;-59
2023/06/05 06:19:38;;;;;;;1.00;1.00;;;;;;;18.37;100.00;95836.59;5114066;28;20452;-59
2023/06/05 06:22:11;;;;;;;0.70;0.60;;;;;;;18.61;100.00;95816.72;5113742;28;20450;-59
2023/06/05 06:24:42;;;;;;;0.80;0.77;;;;;;;18.54;100.00;95835.16;5113793;28;20436;-60
2023/06/05 06:27:12;;;;;;;0.70;0.60;;;;;;;18.20;100.00;95830.31;5113580;28;20473;-60
2023/06/05 06:29:48;;;;;;;0.60;0.60;;;;;;;19.01;100.00;95827.19;5113659;28;20510;-60
2023/06/05 06:32:17;;;;;;;0.70;0.70;;;;;;;19.21;100.00;95822.34;5113324;28;20533;-60
2023/06/05 06:34:45;;;;;;;0.60;0.53;;;;;;;19.72;100.00;95824.41;5101524;28;20448;-60
2023/06/05 06:37:15;;;;;;;0.40;0.30;;;;;;;20.32;100.00;95816.38;5112351;28;21011;-60
2023/06/05 06:39:45;;;;;;;0.60;0.60;;;;;;;20.69;100.00;95815.72;5100878;28;20463;-60
2023/06/05 06:42:14;;;;;;;1.40;1.30;;;;;;;20.16;100.00;95822.22;5100287;28;20811;-60
2023/06/05 06:44:42;;;;;;;0.60;0.40;;;;;;;20.09;100.00;95824.59;5112555;28;20451;-60
2023/06/05 06:47:11;;;;;;;3.93;1.47;;;;;;;19.92;100.00;95810.34;5112416;28;20943;-60
2023/06/05 06:49:40;;;;;;;0.80;0.80;;;;;;;19.87;100.00;95811.31;5113015;28;21149;-60
2023/06/05 06:52:10;;;;;;;0.97;0.80;;;;;;;19.98;100.00;95799.13;5113416;28;20536;-59
2023/06/05 06:54:38;;;;;;;0.40;0.30;;;;;;;20.46;100.00;95815.13;5113470;28;20444;-60
2023/06/05 06:57:08;;;;;;;0.70;0.60;;;;;;;21.28;99.69;95806.63;5113331;28;20939;-60
2023/06/05 06:59:37;;;;;;;0.70;0.53;;;;;;;20.87;96.93;95803.78;5112778;28;20447;-59
2023/06/05 07:02:11;;;;;;;0.60;0.60;;;;;;;21.13;97.13;95795.59;5113158;28;20432;-60
2023/06/05 07:04:41;;;;;;;0.53;0.53;;;;;;;21.48;95.62;95802.38;5112797;28;20435;-60
2023/06/05 07:07:11;;;;;;;0.63;0.63;;;;;;;21.26;96.19;95799.97;5113222;28;20493;-59
2023/06/05 07:09:40;;;;;;;0.50;0.40;;;;;;;21.69;95.90;95792.44;5112963;28;20431;-59
2023/06/05 07:12:11;;;;;;;0.50;0.40;;;;;;;22.12;90.57;95792.13;5112579;28;20432;-59
2023/06/05 07:14:40;;;;;;;0.60;0.30;;;;;;;22.34;91.77;95793.72;5112601;28;20493;-59
2023/06/05 07:17:09;;;;;;;0.70;0.70;;;;;;;21.91;87.86;95794.84;5102673;28;20448;-62
2023/06/05 07:19:37;;;;;;;0.83;0.83;;;;;;;22.46;87.72;95797.25;5112963;28;20853;-61
2023/06/05 07:22:06;;;;;;;0.60;0.50;;;;;;;22.72;89.47;95795.06;5112953;28;20427;-62
2023/06/05 07:24:36;;;;;;;0.77;0.70;;;;;;;23.09;84.29;95784.34;5112899;28;21012;-62
2023/06/05 07:27:05;;;;;;;1.23;1.07;;;;;;;23.13;84.07;95780.59;5112600;28;20447;-62
2023/06/05 07:29:35;;;;;;;0.50;0.40;;;;;;;22.69;82.96;95782.22;5112410;28;20467;-62
2023/06/05 07:32:06;;;;;;;0.63;0.60;;;;;;;23.10;80.87;95781.28;5111510;28;20436;-62
2023/06/05 07:34:35;;;;;;;0.70;0.70;;;;;;;22.77;82.16;95783.25;5112606;28;20993;-62
2023/06/05 07:37:07;;;;;;;0.60;0.60;;;;;;;21.97;86.09;95784.63;5112527;28;21014;-62
2023/06/05 07:39:35;;;;;;;0.70;0.67;;;;;;;22.10;87.55;95789.78;5111539;28;20439;-64
2023/06/05 07:42:05;;;;;;;0.43;0.33;;;;;;;22.54;82.80;95773.97;5110232;28;20513;-61
2023/06/05 07:44:34;;;;;;;0.53;0.50;;;;;;;23.69;78.64;95773.50;5096669;28;20448;-62
2023/06/05 07:47:03;;;;;;;0.50;0.43;;;;;;;23.67;80.80;95778.47;5110332;28;20474;-61
2023/06/05 07:49:32;;;;;;;0.67;0.67;;;;;;;24.41;74.83;95782.56;5110882;28;20436;-60
2023/06/05 07:52:01;;;;;;;2.40;0.87;;;;;;;23.93;75.88;95781.56;5099738;28;20450;-60
2023/06/05 07:54:29;;;;;;;1.53;1.43;;;;;;;23.74;75.79;95770.56;5110985;28;21005;-60
2023/06/05 07:56:58;;;;;;;0.93;0.93;;;;;;;23.88;77.04;95773.69;5111492;28;20483;-60
2023/06/05 07:59:27;;;;;;;0.60;0.40;;;;;;;24.68;73.62;95770.13;5111388;28;20439;-60
2023/06/05 08:02:00;;;;;;;0.50;0.50;;;;;;;24.86;69.61;95757.84;5112151;28;20448;-60
2023/06/05 08:04:29;;;;;;;0.50;0.50;;;;;;;25.62;66.08;95760.88;5111867;28;20447;-60
2023/06/05 08:06:57;;;;;;;0.40;0.40;;;;;;;25.45;62.70;95731.38;5110098;28;20540;-60
2023/06/05 08:09:25;;;;;;;0.60;0.60;;;;;;;25.93;63.68;95757.28;5109385;28;20520;-60
2023/06/05 08:11:55;;;;;;;1.00;1.00;;;;;;;25.36;64.17;95746.25;5110218;28;20508;-60
2023/06/05 08:14:23;;;;;;;0.53;0.50;;;;;;;24.69;65.00;95750.81;5109971;28;20843;-61
2023/06/05 08:16:52;;;;;;;1.03;0.93;;;;;;;25.57;65.70;95753.00;5110215;28;20496;-61
2023/06/05 08:19:22;;;;;;;0.63;0.53;;;;;;;25.76;68.30;95753.03;5109959;28;20436;-61
2023/06/05 08:21:52;;;;;;;3.33;0.70;;;;;;;25.19;64.88;95750.94;5111257;28;20435;-61
2023/06/05 08:24:20;;;;;;;0.50;0.47;;;;;;;25.04;67.13;95757.16;5111093;28;20531;-61
2023/06/05 08:26:48;;;;;;;3.03;1.60;;;;;;;25.49;66.91;95753.97;5111905;28;20500;-61
2023/06/05 08:29:17;;;;;;;0.50;0.40;;;;;;;26.29;65.71;95756.88;5085092;28;20528;-61
2023/06/05 08:31:45;;;;;;;0.50;0.40;;;;;;;25.35;64.07;95755.56;5111236;28;20928;-61
2023/06/05 08:34:14;;;;;;;1.53;1.27;;;;;;;26.06;67.88;95755.22;5103110;28;20480;-61
2023/06/05 08:36:44;;;;;;;0.77;0.77;;;;;;;26.12;64.04;95735.56;5105675;28;20439;-61
2023/06/05 08:39:13;;;;;;;0.40;0.40;;;;;;;26.07;61.67;95748.63;5111355;28;20484;-61
2023/06/05 08:41:43;;;;;;;0.60;0.60;;;;;;;26.22;63.43;95748.59;5110799;28;20444;-61
2023/06/05 08:44:13;;;;;;;0.53;0.47;;;;;;;25.96;60.88;95693.31;5111514;28;20443;-61
2023/06/05 08:46:43;;;;;;;0.70;0.70;;;;;;;25.63;62.87;95739.91;5111345;28;20476;-62
2023/06/05 08:49:12;;;;;;;0.83;0.40;;;;;;;25.84;63.66;95738.47;5111615;28;20435;-62
2023/06/05 08:51:42;;;;;;;0.40;0.40;;;;;;;26.53;61.79;95735.97;5111637;28;20460;-62
2023/06/05 08:54:15;;;;;;;0.60;0.40;;;;;;;26.60;60.53;95736.09;5111470;28;20472;-62
2023/06/05 08:56:44;;;;;;;1.37;0.83;;;;;;;26.22;61.43;95743.16;5111147;28;20435;-62
2023/06/05 08:59:15;;;;;;;0.57;0.57;;;;;;;26.94;61.83;95732.47;5111155;28;20465;-62
2023/06/05 09:01:44;;;;;;;0.40;0.40;;;;;;;27.30;59.68;95725.66;5084514;28;20436;-62
2023/06/05 09:04:13;;;;;;;0.40;0.30;;;;;;;27.77;60.58;95717.00;5111151;28;20891;-59
2023/06/05 09:06:46;;;;;;;0.70;0.70;;;;;;;27.52;62.15;95728.34;5110901;28;20435;-61
2023/06/05 09:09:17;;;;;;;0.50;0.40;;;;;;;28.00;59.83;95728.59;5110579;28;20962;-61
2023/06/05 09:11:45;;;;;;;1.47;0.60;;;;;;;28.49;57.88;95714.78;5114378;28;20435;-60
2023/06/05 09:14:14;;;;;;;0.80;0.50;;;;;;;28.72;58.69;95712.69;5101864;28;20478;-60
2023/06/05 09:16:43;;;;;;;0.70;0.70;;;;;;;27.50;57.40;95719.75;5115443;28;20523;-61
2023/06/05 09:19:13;;;;;;;19.17;0.50;;;;;;;27.88;58.96;95707.03;5115115;28;20894;-61
2023/06/05 09:21:52;;;;;;;0.60;0.60;;;;;;;28.32;58.13;95711.50;5114779;28;20866;-61
2023/06/05 09:24:23;;;;;;;0.50;0.33;;;;;;;28.36;60.50;95714.22;5087833;28;20920;-60
2023/06/05 09:26:56;;;;;;;0.50;0.30;;;;;;;28.80;57.71;95666.00;5114493;28;20440;-59
2023/06/05 09:29:27;;;;;;;0.50;0.40;;;;;;;29.04;54.54;95700.13;5114214;28;20836;-60
2023/06/05 09:31:57;;;;;;;0.70;0.70;;;;;;;29.33;56.80;95710.13;5114032;28;20436;-55
2023/06/05 09:34:27;;;;;;;0.43;0.37;;;;;;;28.91;55.25;95694.19;5114033;28;20505;-55
2023/06/05 09:36:57;;;;;;;0.40;0.30;;;;;;;28.53;55.23;95700.03;5114015;28;20488;-55
2023/06/05 09:39:28;;;;;;;0.40;0.40;;;;;;;28.85;56.12;95698.41;5114518;28;20459;-55
2023/06/05 09:41:57;;;;;;;0.50;0.50;;;;;;;28.62;54.93;95699.72;5114027;28;20440;-55
2023/06/05 09:44:28;;;;;;;0.67;0.67;;;;;;;28.33;57.01;95696.69;5114969;28;20439;-55
2023/06/05 09:46:58;;;;;;;0.40;0.30;;;;;;;28.39;54.85;95686.22;5113691;28;20450;-55
2023/06/05 09:49:30;;;;;;;0.43;0.40;;;;;;;29.06;51.23;95656.06;5114467;28;20471;-56
2023/06/05 09:52:00;;;;;;;0.57;0.57;;;;;;;28.24;50.75;95690.75;5114300;28;20475;-56
2023/06/05 09:54:31;;;;;;;0.43;0.40;;;;;;;28.36;51.93;95695.16;5114002;28;20473;-56
2023/06/05 09:57:01;;;;;;;0.60;0.50;;;;;;;28.76;57.09;95686.25;5113989;28;20963;-62
2023/06/05 09:59:32;;;;;;;0.50;0.50;;;;;;;29.41;52.12;95686.38;5113927;28;20443;-61
2023/06/05 10:02:04;;;;;;;1.13;1.03;;;;;;;28.88;56.78;95664.91;5113718;28;20431;-62
2023/06/05 10:04:39;;;;;;;0.40;0.30;;;;;;;29.54;52.13;95671.22;5114140;28;20518;-61
2023/06/05 10:07:08;;;;;;;1.80;0.77;;;;;;;29.26;51.14;95671.84;5113724;28;20453;-61
2023/06/05 10:09:39;;;;;;;0.60;0.43;;;;;;;29.84;49.96;95669.06;5113711;28;20954;-61
2023/06/05 10:12:09;;;;;;;0.40;0.30;;;;;;;30.46;47.72;95661.47;5114053;28;20463;-61
2023/06/05 10:14:41;;;;;;;1.03;1.03;;;;;;;30.00;48.19;95660.53;5113767;28;20807;-61
2023/06/05 10:17:12;;;;;;;0.50;0.40;;;;;;;30.14;47.82;95655.13;5113678;28;20530;-61
2023/06/05 10:19:43;;;;;;;0.40;0.30;;;;;;;31.33;49.58;95651.72;5108017;28;20488;-61
2023/06/05 10:22:11;;;;;;;1.10;0.97;;;;;;;31.10;49.47;95645.09;5112320;28;20431;-61
2023/06/05 10:24:45;;;;;;;1.10;0.60;;;;;;;30.35;50.53;95654.41;5113904;28;20466;-66
2023/06/05 10:27:48;;;;;;;2.53;0.70;;;;;;;30.27;48.46;95642.66;5097402;28;20522;-67
2023/06/05 10:30:57;;;;;;;0.70;0.50;;;;;;;31.37;48.45;95622.34;5093815;28;20938;-67
2023/06/05 10:33:37;;;;;;;0.40;0.40;;;;;;;31.27;50.15;95633.38;5092831;28;20447;-67
2023/06/05 10:36:16;;;;;;;0.40;0.30;;;;;;;32.22;47.96;95621.28;5113276;28;20482;-67
2023/06/05 10:38:45;;;;;;;0.50;0.50;;;;;;;30.63;47.27;95627.91;5113387;28;20442;-67
2023/06/05 10:41:18;;;;;;;0.60;0.40;;;;;;;30.46;49.61;95627.88;5113545;28;20465;-67
2023/06/05 10:43:48;;;;;;;0.40;0.30;;;;;;;31.71;48.02;95616.41;5113617;28;20439;-67
2023/06/05 10:46:31;;;;;;;0.60;0.40;;;;;;;31.56;48.14;95612.16;5113652;28;20515;-68
2023/06/05 10:49:11;;;;;;;1.03;0.97;;;;;;;30.68;45.87;95607.56;5113000;28;20958;-67
2023/06/05 10:51:42;;;;;;;0.40;0.30;;;;;;;31.60;46.92;95605.47;5113955;28;20430;-68
2023/06/05 10:54:15;;;;;;;0.60;0.60;;;;;;;31.36;44.71;95606.31;5136020;28;20450;-68
2023/06/05 10:57:03;;;;;;;1.17;0.77;;;;;;;31.53;44.22;95547.19;5114294;28;20926;-68
2023/06/05 10:59:33;;;;;;;0.97;0.97;;;;;;;32.34;46.17;95591.44;5112979;28;21076;-68
2023/06/05 11:02:24;;;;;;;0.40;0.30;;;;;;;32.70;44.48;95591.19;5087371;28;20463;-69
2023/06/05 11:05:08;;;;;;;0.60;0.40;;;;;;;31.34;45.76;95590.28;5112594;28;20550;-68
2023/06/05 11:07:37;;;;;;;0.40;0.40;;;;;;;30.58;45.19;95594.66;5112642;28;20630;-68
2023/06/05 11:10:08;;;;;;;0.40;0.40;;;;;;;31.07;45.78;95594.63;5113446;28;20512;-66
2023/06/05 11:13:10;;;;;;;1.30;1.30;;;;;;;29.98;46.75;95600.03;5112738;28;20493;-65
2023/06/05 11:15:41;;;;;;;0.50;0.40;;;;;;;30.51;46.47;95594.66;5077402;28;20476;-65
2023/06/05 11:18:34;;;;;;;0.30;0.30;;;;;;;30.42;47.29;95602.47;5089858;28;20867;-64
2023/06/05 11:21:03;;;;;;;0.30;0.30;;;;;;;29.46;50.67;95604.06;5104370;28;20439;-64
2023/06/05 11:23:31;;;;;;;2.50;0.50;;;;;;;27.81;52.78;95604.19;5112772;28;20446;-63
2023/06/05 11:26:33;;;;;;;0.60;0.40;;;;;;;27.30;55.83;95601.19;5111712;28;20564;-62
2023/06/05 11:29:03;;;;;;;0.80;0.80;;;;;;;26.85;57.24;95606.78;5112031;28;20470;-61
2023/06/05 11:31:32;;;;;;;0.60;0.53;;;;;;;26.32;57.81;95617.56;5112751;28;20461;-61
2023/06/05 11:34:01;;;;;;;0.70;0.70;;;;;;;26.14;55.94;95621.09;5111325;28;20937;-61
2023/06/05 11:36:30;;;;;;;0.80;0.73;;;;;;;25.39;56.81;95612.59;5112149;28;20858;-61
2023/06/05 11:38:58;;;;;;;0.57;0.57;;;;;;;24.58;60.21;95617.72;5098368;28;20569;-61
2023/06/05 11:41:46;;;;;;;0.50;0.50;;;;;;;24.54;62.29;95618.78;5111854;28;20444;-60
2023/06/05 11:44:16;;;;;;;0.50;0.40;;;;;;;24.25;63.34;95619.97;5085140;28;20442;-60